createdAt,value
2023-03-20T00:01:59.951Z,23.17
2023-03-20T00:04:26.691Z,23.00
2023-03-20T00:06:53.436Z,22.98
2023-03-20T00:09:20.168Z,22.27
2023-03-20T00:11:52.633Z,22.63
2023-03-20T00:14:22.636Z,23.95
2023-03-20T00:16:50.803Z,23.38
2023-03-20T00:19:24.555Z,24.73
2023-03-20T00:21:53.026Z,23.58
2023-03-20T00:24:20.407Z,22.40
2023-03-20T00:26:49.167Z,23.10
2023-03-20T00:29:31.154Z,22.00
2023-03-20T00:31:58.961Z,22.35
2023-03-20T00:34:29.507Z,22.48
2023-03-20T00:36:56.682Z,22.45
2023-03-20T00:39:23.806Z,22.23
2023-03-20T00:41:54.722Z,23.27
2023-03-20T00:44:24.487Z,22.50
2023-03-20T00:47:03.400Z,23.35
2023-03-20T00:49:33.335Z,22.92
2023-03-20T00:52:02.067Z,24.48
2023-03-20T00:54:29.005Z,23.63
2023-03-20T00:57:02.676Z,24.33
2023-03-20T00:59:33.282Z,22.52
2023-03-20T01:02:02.555Z,24.55
2023-03-20T01:04:49.730Z,23.52
2023-03-20T01:07:16.418Z,23.50
2023-03-20T01:09:43.100Z,23.08
2023-03-20T01:12:12.865Z,24.08
2023-03-20T01:14:39.669Z,23.60
2023-03-20T01:17:12.461Z,24.80
2023-03-20T01:19:40.689Z,24.80
2023-03-20T01:22:07.865Z,23.75
2023-03-20T01:24:34.590Z,25.23
2023-03-20T01:27:04.080Z,24.27
2023-03-20T01:29:31.679Z,26.20
2023-03-20T01:31:58.377Z,25.05
2023-03-20T01:34:25.423Z,26.08
2023-03-20T01:36:54.533Z,26.23
2023-03-20T01:39:24.435Z,25.00
2023-03-20T01:41:52.995Z,25.20
2023-03-20T01:44:22.969Z,25.30
2023-03-20T01:46:52.093Z,25.92
2023-03-20T01:49:21.611Z,26.02
2023-03-20T01:51:49.549Z,24.92
2023-03-20T01:54:23.071Z,25.98
2023-03-20T01:56:52.498Z,25.85
2023-03-20T01:59:33.637Z,25.95
2023-03-20T02:02:00.572Z,25.92
2023-03-20T02:04:34.634Z,26.63
2023-03-20T02:07:01.544Z,25.80
2023-03-20T02:09:28.272Z,27.77
2023-03-20T02:11:57.663Z,27.48
2023-03-20T02:14:24.526Z,26.42
2023-03-20T02:16:51.317Z,27.90
2023-03-20T02:19:35.438Z,27.60
2023-03-20T02:22:20.806Z,28.42
2023-03-20T02:25:15.483Z,27.73
2023-03-20T02:28:01.314Z,28.33
2023-03-20T02:31:01.346Z,28.25
2023-03-20T02:33:58.733Z,27.98
2023-03-20T02:36:41.000Z,27.05
2023-03-20T02:39:23.624Z,27.90
2023-03-20T02:42:08.382Z,28.55
2023-03-20T02:44:58.848Z,28.75
2023-03-20T02:47:39.428Z,28.85
2023-03-20T02:50:32.468Z,29.23
2023-03-20T02:53:23.984Z,28.63
2023-03-20T02:56:09.500Z,28.60
2023-03-20T02:58:50.613Z,29.17
2023-03-20T03:01:35.613Z,28.98
2023-03-20T03:04:11.153Z,29.95
2023-03-20T03:09:33.096Z,29.08
2023-03-20T03:12:25.627Z,29.15
2023-03-20T03:15:15.637Z,29.23
2023-03-20T03:17:44.781Z,29.38
2023-03-20T03:20:32.625Z,29.40
2023-03-20T03:23:00.458Z,30.30
2023-03-20T03:25:33.127Z,30.02
2023-03-20T03:28:45.793Z,29.63
2023-03-20T03:31:15.299Z,28.48
2023-03-20T03:33:52.032Z,29.13
2023-03-20T03:36:55.362Z,30.45
2023-03-20T03:39:39.154Z,29.90
2023-03-20T03:42:20.957Z,30.20
2023-03-20T03:45:19.289Z,30.25
2023-03-20T03:48:01.163Z,30.88
2023-03-20T03:50:51.006Z,30.38
2023-03-20T03:53:25.231Z,29.92
2023-03-20T03:55:56.599Z,30.42
2023-03-20T03:58:53.781Z,31.98
2023-03-20T04:01:23.087Z,30.75
2023-03-20T04:04:00.940Z,31.48
2023-03-20T04:06:28.549Z,29.95
2023-03-20T04:08:55.582Z,30.73
2023-03-20T04:11:24.800Z,30.95
2023-03-20T04:13:52.628Z,30.42
2023-03-20T04:16:21.620Z,31.00
2023-03-20T04:18:48.527Z,31.52
2023-03-20T04:21:16.191Z,32.65
2023-03-20T04:23:43.080Z,31.48
2023-03-20T04:26:10.107Z,31.83
2023-03-20T04:28:37.073Z,32.95
2023-03-20T04:31:04.584Z,31.25
2023-03-20T04:33:31.289Z,32.40
2023-03-20T04:35:58.203Z,31.15
2023-03-20T04:38:25.053Z,31.23
2023-03-20T04:40:52.275Z,31.95
2023-03-20T04:43:19.420Z,32.38
2023-03-20T04:45:46.272Z,31.10
2023-03-20T04:48:13.220Z,30.77
2023-03-20T04:50:39.945Z,32.20
2023-03-20T04:53:06.730Z,32.35
2023-03-20T04:55:33.658Z,32.97
2023-03-20T04:58:00.482Z,32.63
2023-03-20T05:00:27.355Z,32.42
2023-03-20T05:02:54.062Z,32.20
2023-03-20T05:05:21.008Z,32.00
2023-03-20T05:07:47.836Z,32.33
2023-03-20T05:10:14.554Z,34.90
2023-03-20T05:12:41.371Z,31.10
2023-03-20T05:15:08.753Z,31.67
2023-03-20T05:17:35.440Z,31.80
2023-03-20T05:20:02.255Z,33.72
2023-03-20T05:22:28.972Z,32.65
2023-03-20T05:24:56.357Z,32.00
2023-03-20T05:27:23.075Z,31.50
2023-03-20T05:29:49.709Z,31.60
2023-03-20T05:32:16.524Z,33.25
2023-03-20T05:34:43.221Z,32.17
2023-03-20T05:37:10.164Z,31.42
2023-03-20T05:39:36.807Z,31.38
2023-03-20T05:42:03.675Z,32.15
2023-03-20T05:44:30.785Z,32.70
2023-03-20T05:46:57.670Z,32.88
2023-03-20T05:49:24.427Z,33.63
2023-03-20T05:51:51.161Z,32.67
2023-03-20T05:54:18.315Z,32.30
2023-03-20T05:56:45.095Z,33.40
2023-03-20T05:59:12.279Z,33.15
2023-03-20T06:01:38.936Z,32.50
2023-03-20T06:04:05.943Z,31.83
2023-03-20T06:06:32.768Z,32.55
2023-03-20T06:08:59.525Z,33.30
2023-03-20T06:11:26.362Z,32.70
2023-03-20T06:13:55.645Z,32.70
2023-03-20T06:16:22.363Z,32.72
2023-03-20T06:18:49.271Z,32.00
2023-03-20T06:21:16.207Z,31.55
2023-03-20T06:23:42.980Z,31.95
2023-03-20T06:26:09.795Z,31.35
2023-03-20T06:28:37.232Z,30.92
2023-03-20T06:31:04.075Z,30.33
2023-03-20T06:33:30.850Z,31.67
2023-03-20T06:35:57.764Z,30.92
2023-03-20T06:38:24.480Z,30.73
2023-03-20T06:40:51.157Z,31.35
2023-03-20T06:43:18.632Z,29.83
2023-03-20T06:45:45.527Z,30.85
2023-03-20T06:48:12.377Z,31.05
2023-03-20T06:50:40.376Z,31.08
2023-03-20T06:53:07.126Z,31.40
2023-03-20T06:55:34.004Z,31.77
2023-03-20T06:58:00.946Z,31.17
2023-03-20T07:00:27.702Z,30.65
2023-03-20T07:02:54.542Z,31.95
2023-03-20T07:05:21.327Z,32.15
2023-03-20T07:07:48.112Z,31.10
2023-03-20T07:10:14.896Z,29.42
2023-03-20T07:12:41.576Z,29.45
2023-03-20T07:15:08.584Z,30.02
2023-03-20T07:17:35.678Z,29.50
2023-03-20T07:20:02.921Z,30.02
2023-03-20T07:22:31.588Z,28.83
2023-03-20T07:24:58.330Z,30.42
2023-03-20T07:27:25.289Z,28.98
2023-03-20T07:29:52.323Z,30.00
2023-03-20T07:32:19.390Z,30.85
2023-03-20T07:34:47.548Z,29.27
2023-03-20T07:37:14.320Z,28.70
2023-03-20T07:39:41.410Z,27.38
2023-03-20T07:42:08.282Z,26.27
2023-03-20T07:44:35.545Z,26.65
2023-03-20T07:47:02.360Z,25.65
2023-03-20T07:49:29.027Z,24.33
2023-03-20T07:51:56.958Z,24.45
2023-03-20T07:54:24.213Z,24.55
2023-03-20T07:56:51.035Z,25.13
2023-03-20T07:59:18.024Z,25.40
2023-03-20T08:01:45.333Z,25.60
2023-03-20T08:04:12.254Z,27.15
2023-03-20T08:06:39.537Z,27.23
2023-03-20T08:09:06.917Z,27.48
2023-03-20T08:11:34.757Z,26.92
2023-03-20T08:14:01.547Z,28.23
2023-03-20T08:16:28.416Z,28.02
2023-03-20T08:19:00.954Z,28.67
2023-03-20T08:21:29.205Z,29.58
2023-03-20T08:23:56.391Z,28.38
2023-03-20T08:26:23.826Z,29.88
2023-03-20T08:28:51.435Z,30.67
2023-03-20T08:31:19.094Z,30.10
2023-03-20T08:33:46.914Z,30.80
2023-03-20T08:36:15.593Z,31.38
2023-03-20T08:38:43.117Z,32.45
2023-03-20T08:41:09.866Z,29.65
2023-03-20T08:43:36.684Z,29.17
2023-03-20T08:46:04.172Z,28.95
2023-03-20T08:48:30.856Z,28.17
2023-03-20T08:50:57.766Z,28.30
2023-03-20T08:53:24.596Z,26.50
2023-03-20T08:55:54.430Z,27.48
2023-03-20T08:58:21.719Z,27.60
2023-03-20T09:00:48.642Z,25.83
2023-03-20T09:03:17.544Z,24.35
2023-03-20T09:05:46.584Z,24.75
2023-03-20T09:08:14.086Z,26.60
2023-03-20T09:10:41.166Z,28.42
2023-03-20T09:13:25.805Z,25.45
2023-03-20T09:15:55.131Z,22.85
2023-03-20T09:18:22.720Z,23.08
2023-03-20T09:20:49.408Z,24.83
2023-03-20T09:23:16.405Z,24.50
2023-03-20T09:25:43.254Z,25.52
2023-03-20T09:28:10.085Z,26.23
2023-03-20T09:30:37.554Z,26.00
2023-03-20T09:33:04.866Z,26.85
2023-03-20T09:35:31.936Z,28.45
2023-03-20T09:37:58.670Z,28.65
2023-03-20T09:40:47.827Z,31.80
2023-03-20T09:43:36.344Z,31.70
2023-03-20T09:46:18.504Z,30.83
2023-03-20T09:49:00.271Z,30.30
2023-03-20T09:51:34.829Z,31.80
2023-03-20T09:54:11.296Z,32.17
2023-03-20T09:56:38.161Z,31.83
2023-03-20T09:59:06.665Z,31.27
2023-03-20T10:01:58.549Z,33.08
2023-03-20T10:04:30.064Z,33.22
2023-03-20T10:06:56.954Z,33.05
2023-03-20T10:09:28.233Z,33.40
2023-03-20T10:12:09.228Z,32.67
2023-03-20T10:14:57.370Z,34.45
2023-03-20T10:17:48.764Z,32.10
2023-03-20T10:20:28.224Z,30.92
2023-03-20T10:23:13.263Z,31.88
2023-03-20T10:25:51.043Z,33.00
2023-03-20T10:28:24.975Z,31.38
2023-03-20T10:31:06.664Z,32.15
2023-03-20T10:33:56.328Z,29.23
2023-03-20T10:37:06.691Z,29.83
2023-03-20T10:39:54.945Z,27.77
2023-03-20T10:42:27.698Z,26.83
2023-03-20T10:45:04.295Z,27.10
2023-03-20T10:47:36.501Z,26.10
2023-03-20T10:50:17.057Z,24.15
2023-03-20T10:52:45.977Z,28.42
2023-03-20T10:55:20.865Z,26.42
2023-03-20T10:58:03.257Z,26.47
2023-03-20T11:00:30.128Z,26.80
2023-03-20T11:02:56.885Z,26.65
2023-03-20T11:05:34.267Z,26.73
2023-03-20T11:08:11.386Z,26.70
2023-03-20T11:10:39.619Z,25.92
2023-03-20T11:13:30.486Z,25.85
2023-03-20T11:16:08.333Z,27.83
2023-03-20T11:18:35.110Z,26.80
2023-03-20T11:21:03.021Z,27.70
2023-03-20T11:23:34.432Z,28.30
2023-03-20T11:26:07.205Z,25.00
2023-03-20T11:28:35.514Z,24.42
2023-03-20T11:31:11.197Z,25.17
2023-03-20T11:33:41.186Z,25.83
2023-03-20T11:36:29.834Z,23.88
2023-03-20T11:39:11.689Z,24.75
2023-03-20T11:41:45.730Z,24.02
2023-03-20T11:44:42.622Z,24.23
2023-03-20T11:47:17.259Z,22.33
2023-03-20T11:49:52.874Z,24.37
2023-03-20T11:52:34.976Z,23.83
2023-03-20T11:55:20.177Z,23.88
2023-03-20T11:57:48.668Z,23.48
2023-03-20T12:00:15.895Z,22.52
2023-03-20T12:02:44.758Z,22.35
2023-03-20T12:05:30.030Z,21.85
2023-03-20T12:08:18.739Z,22.90
2023-03-20T12:10:54.496Z,23.55
2023-03-20T12:13:34.345Z,22.63
2023-03-20T12:16:13.570Z,23.73
2023-03-20T12:18:54.854Z,22.85
2023-03-20T12:21:28.434Z,22.58
2023-03-20T12:24:17.543Z,22.92
2023-03-20T12:27:05.541Z,23.35
2023-03-20T12:30:06.855Z,20.75
2023-03-20T12:33:02.528Z,22.67
2023-03-20T12:35:36.751Z,24.10
2023-03-20T12:38:04.730Z,23.10
2023-03-20T12:40:45.461Z,24.55
2023-03-20T12:43:25.495Z,22.85
2023-03-20T12:46:25.583Z,22.55
2023-03-20T12:49:06.312Z,24.00
2023-03-20T12:51:47.630Z,23.17
2023-03-20T12:54:17.420Z,24.95
2023-03-20T12:56:56.668Z,26.25
2023-03-20T12:59:43.066Z,24.92
2023-03-20T13:02:30.194Z,23.95
2023-03-20T13:05:07.778Z,30.92
2023-03-20T13:07:47.718Z,20.88
2023-03-20T13:10:20.660Z,23.73
2023-03-20T13:12:50.438Z,22.83
2023-03-20T13:15:25.746Z,23.98
2023-03-20T13:20:36.623Z,22.63
2023-03-20T13:23:27.515Z,22.77
2023-03-20T13:26:03.129Z,23.42
2023-03-20T13:28:31.088Z,25.15
2023-03-20T13:31:16.454Z,22.42
2023-03-20T13:34:00.506Z,23.60
2023-03-20T13:36:42.826Z,23.92
2023-03-20T13:39:28.838Z,24.95
2023-03-20T13:41:57.255Z,26.30
2023-03-20T13:44:28.006Z,24.20
2023-03-20T13:47:02.396Z,23.23
2023-03-20T13:49:42.454Z,24.48
2023-03-20T13:52:12.013Z,24.38
2023-03-20T13:55:21.997Z,20.13
2023-03-20T13:58:13.050Z,24.08
2023-03-20T14:00:45.685Z,23.52
2023-03-20T14:03:17.309Z,22.40
2023-03-20T14:05:44.821Z,24.95
2023-03-20T14:08:34.014Z,25.42
2023-03-20T14:11:12.631Z,25.75
2023-03-20T14:13:41.808Z,24.25
2023-03-20T14:16:10.401Z,23.10
2023-03-20T14:18:38.055Z,25.25
2023-03-20T14:21:13.084Z,24.02
2023-03-20T14:23:46.105Z,24.50
2023-03-20T14:26:26.123Z,22.85
2023-03-20T14:29:19.920Z,23.35
2023-03-20T14:31:52.091Z,23.00
2023-03-20T14:34:24.592Z,24.25
2023-03-20T14:36:51.474Z,25.02
2023-03-20T14:39:22.068Z,24.48
2023-03-20T14:42:01.060Z,22.42
2023-03-20T14:45:01.953Z,24.08
2023-03-20T14:47:53.355Z,25.15
2023-03-20T14:50:30.513Z,24.73
2023-03-20T14:53:20.098Z,24.60
2023-03-20T14:55:51.232Z,24.33
2023-03-20T14:58:43.991Z,26.25
2023-03-20T15:01:22.792Z,24.83
2023-03-20T15:04:06.708Z,25.60
2023-03-20T15:06:35.671Z,24.05
2023-03-20T15:09:08.075Z,23.58
2023-03-20T15:11:35.686Z,24.98
2023-03-20T15:14:06.463Z,24.75
2023-03-20T15:16:37.187Z,24.05
2023-03-20T15:19:18.245Z,25.92
2023-03-20T15:21:48.067Z,24.20
2023-03-20T15:24:28.979Z,23.27
2023-03-20T15:26:59.797Z,23.42
2023-03-20T15:29:27.993Z,24.95
2023-03-20T15:32:13.535Z,25.85
2023-03-20T15:34:42.509Z,24.92
2023-03-20T15:37:16.730Z,24.45
2023-03-20T15:39:46.263Z,24.42
2023-03-20T15:42:17.191Z,24.10
2023-03-20T15:44:48.041Z,25.77
2023-03-20T15:47:23.278Z,26.60
2023-03-20T15:50:00.073Z,26.77
2023-03-20T15:52:38.940Z,25.55
2023-03-20T15:55:12.076Z,23.42
2023-03-20T15:57:41.525Z,21.95
2023-03-20T16:00:20.226Z,21.73
2023-03-20T16:02:49.093Z,24.42
2023-03-20T16:05:17.896Z,21.92
2023-03-20T16:07:44.922Z,22.95
2023-03-20T16:10:36.121Z,21.05
2023-03-20T16:13:06.562Z,22.98
2023-03-20T16:15:34.133Z,21.38
2023-03-20T16:18:04.660Z,23.08
2023-03-20T16:20:37.283Z,23.70
2023-03-20T16:23:07.725Z,23.65
2023-03-20T16:25:36.318Z,24.35
2023-03-20T16:28:07.007Z,23.50
2023-03-20T16:30:35.597Z,25.58
2023-03-20T16:33:10.010Z,24.60
2023-03-20T16:35:44.630Z,24.80
2023-03-20T16:38:31.146Z,25.93
2023-03-20T16:41:22.585Z,24.73
2023-03-20T16:43:50.532Z,26.00
2023-03-20T16:46:24.963Z,24.33
2023-03-20T16:49:12.931Z,24.77
2023-03-20T16:51:42.874Z,24.63
2023-03-20T16:54:23.267Z,25.48
2023-03-20T16:56:54.665Z,24.42
2023-03-20T16:59:21.573Z,23.42
2023-03-20T17:01:49.447Z,24.08
2023-03-20T17:04:22.213Z,24.98
2023-03-20T17:06:52.546Z,23.90
2023-03-20T17:09:19.300Z,24.73
2023-03-20T17:11:49.483Z,24.20
2023-03-20T17:14:17.018Z,24.75
2023-03-20T17:16:44.267Z,24.45
2023-03-20T17:19:17.642Z,24.88
2023-03-20T17:21:46.409Z,24.75
2023-03-20T17:24:14.889Z,23.90
2023-03-20T17:26:44.144Z,23.52
2023-03-20T17:29:12.149Z,24.58
2023-03-20T17:31:39.298Z,24.63
2023-03-20T17:34:06.359Z,25.20
2023-03-20T17:36:34.834Z,23.90
2023-03-20T17:39:02.098Z,24.52
2023-03-20T17:41:29.578Z,25.08
2023-03-20T17:43:56.717Z,25.05
2023-03-20T17:46:27.225Z,26.25
2023-03-20T17:49:15.099Z,25.77
2023-03-20T17:51:42.946Z,25.73
2023-03-20T17:54:09.758Z,26.50
2023-03-20T17:56:36.837Z,25.58
2023-03-20T17:59:04.039Z,26.17
2023-03-20T18:01:32.743Z,25.17
2023-03-20T18:03:59.747Z,27.17
2023-03-20T18:06:29.644Z,24.90
2023-03-20T18:08:57.640Z,27.33
2023-03-20T18:11:25.134Z,26.48
2023-03-20T18:13:52.194Z,27.42
2023-03-20T18:16:24.370Z,26.05
2023-03-20T18:18:52.574Z,27.65
2023-03-20T18:21:19.587Z,26.30
2023-03-20T18:23:46.885Z,29.15
2023-03-20T18:26:33.935Z,27.00
2023-03-20T18:29:01.047Z,26.88
2023-03-20T18:31:27.953Z,26.77
2023-03-20T18:33:54.818Z,27.17
2023-03-20T18:36:25.355Z,25.55
2023-03-20T18:38:52.570Z,26.45
2023-03-20T18:41:19.937Z,28.27
2023-03-20T18:43:46.762Z,27.60
2023-03-20T18:46:14.429Z,26.85
2023-03-20T18:48:42.190Z,27.63
2023-03-20T18:51:09.252Z,25.92
2023-03-20T18:53:36.155Z,26.85
2023-03-20T18:56:04.057Z,28.20
2023-03-20T18:58:31.394Z,28.58
2023-03-20T19:01:00.304Z,29.38
2023-03-20T19:03:28.549Z,28.05
2023-03-20T19:05:57.632Z,27.35
2023-03-20T19:08:24.644Z,28.05
2023-03-20T19:10:51.714Z,30.02
2023-03-20T19:13:20.334Z,29.65
2023-03-20T19:15:47.325Z,29.27
2023-03-20T19:18:18.002Z,28.73
2023-03-20T19:20:48.130Z,29.67
2023-03-20T19:23:19.718Z,28.40
2023-03-20T19:25:51.724Z,29.25
2023-03-20T19:28:34.598Z,29.60
2023-03-20T19:31:05.150Z,29.90
2023-03-20T19:33:33.291Z,29.92
2023-03-20T19:36:03.753Z,29.33
2023-03-20T19:38:32.256Z,30.95
2023-03-20T19:40:59.875Z,31.50
2023-03-20T19:43:28.955Z,30.75
2023-03-20T19:45:59.089Z,30.40
2023-03-20T19:48:46.150Z,31.45
2023-03-20T19:51:26.911Z,30.30
2023-03-20T19:53:54.547Z,30.85
2023-03-20T19:56:22.652Z,31.38
2023-03-20T19:58:50.040Z,28.50
2023-03-20T20:01:19.942Z,31.52
2023-03-20T20:03:47.015Z,33.70
2023-03-20T20:06:14.754Z,32.75
2023-03-20T20:08:48.500Z,32.90
2023-03-20T20:11:20.610Z,31.70
2023-03-20T20:16:40.156Z,31.90
2023-03-20T20:19:07.155Z,31.58
2023-03-20T20:24:21.410Z,31.60
2023-03-20T20:26:54.944Z,33.08
2023-03-20T20:29:28.071Z,31.60
2023-03-20T20:31:54.867Z,33.40
2023-03-20T20:39:55.619Z,35.03
2023-03-20T20:42:23.050Z,33.85
2023-03-20T20:44:50.246Z,34.45
2023-03-20T20:47:17.505Z,34.20
2023-03-20T20:49:46.844Z,33.95
2023-03-20T20:52:14.784Z,35.20
2023-03-20T20:54:42.172Z,34.28
2023-03-20T20:57:14.247Z,34.50
2023-03-20T20:59:41.329Z,35.08
2023-03-20T21:02:12.990Z,34.67
2023-03-20T21:04:41.148Z,36.65
2023-03-20T21:07:11.696Z,34.45
2023-03-20T21:09:39.491Z,36.72
2023-03-20T21:12:08.242Z,36.40
2023-03-20T21:14:35.653Z,37.20
2023-03-20T21:17:03.264Z,36.20
2023-03-20T21:19:37.076Z,36.55
2023-03-20T21:22:05.410Z,36.53
2023-03-20T21:24:34.302Z,36.75
2023-03-20T21:27:08.126Z,35.13
2023-03-20T21:29:34.964Z,36.95
2023-03-20T21:32:01.754Z,35.95
2023-03-20T21:34:29.190Z,37.00
2023-03-20T21:36:57.849Z,37.22
2023-03-20T21:39:27.575Z,36.28
2023-03-20T21:41:54.548Z,36.88
2023-03-20T21:44:56.210Z,36.80
2023-03-20T21:50:45.969Z,36.78
2023-03-20T21:53:18.057Z,36.75
2023-03-20T21:58:53.774Z,38.63
2023-03-20T22:04:44.869Z,38.70
2023-03-20T22:07:24.189Z,38.40
2023-03-20T22:15:33.790Z,38.83
2023-03-20T22:18:25.124Z,39.20
2023-03-20T22:27:01.673Z,38.67
2023-03-20T22:40:53.440Z,40.80
2023-03-20T22:43:50.887Z,40.63
2023-03-20T22:45:52.617Z,42.38
2023-03-20T22:48:26.579Z,42.50
2023-03-20T22:50:53.498Z,41.05
2023-03-20T22:53:20.285Z,42.08
2023-03-20T22:55:50.641Z,41.20
2023-03-20T22:58:17.283Z,40.83
2023-03-20T23:00:44.155Z,41.03
2023-03-20T23:03:25.745Z,42.60
2023-03-20T23:05:57.839Z,40.55
2023-03-20T23:08:25.007Z,40.92
2023-03-20T23:10:51.941Z,41.00
2023-03-20T23:13:20.392Z,40.67
2023-03-20T23:15:48.311Z,41.55
2023-03-20T23:18:15.355Z,40.33
2023-03-20T23:20:42.441Z,41.47
2023-03-20T23:23:09.648Z,42.50
2023-03-20T23:25:39.772Z,40.05
2023-03-20T23:28:09.312Z,42.45
2023-03-20T23:30:45.380Z,43.35
2023-03-20T23:33:16.571Z,41.63
2023-03-20T23:35:43.355Z,42.22
2023-03-20T23:38:10.315Z,43.83
2023-03-20T23:40:37.699Z,42.55
2023-03-20T23:43:04.618Z,41.40
2023-03-20T23:45:31.400Z,41.95
2023-03-20T23:47:58.123Z,41.90
2023-03-20T23:50:31.967Z,42.25
2023-03-20T23:53:17.621Z,41.35
2023-03-20T23:55:47.679Z,40.85
2023-03-20T23:58:15.656Z,43.38
